Latest Weather Observations for Nhill Aerodrome

IDV60801

Issued at 12:05 pm EDT Thursday 27 November 2014 (issued every 30 minutes, with the page automatically refreshed every 10 minutes)

About weather observations | Map of weather stations | Latest weather observations for VIC | Other Formats
Station Details ID: 078015 Name: NHILL AERODROME Lat: -36.31 Lon: 141.65 Height: 138.9 m
Data from the previous 72 hours. | See also: Recent months at Nhill Aerodrome
Date/Time
EDT
Temp
°C
App
Temp
°C
Dew
Point
Rel
Hum
%
Delta-T
°C
Wind Press
QNH
hPa
Press
MSL
hPa
Rain
since 9 am
mm
Dir
 
Spd
km/h
Gust
km/h
Spd
kts
Gust
kts
27/12:00pm 19.5 15.7 1.5 30 8.2 SSE 11 20 6 11 1024.2 1023.9 0.0
27/11:30am 18.9 15.9 1.9 32 7.7 S 7 15 4 8 1024.5 1024.2 0.0
27/11:00am 17.4 13.3 2.2 36 6.9 SSE 13 19 7 10 1024.8 1024.5 0.0
27/10:30am 17.3 14.6 3.6 40 6.4 SE 7 19 4 10 1025.0 1024.7 0.0
27/10:00am 15.3 12.8 3.8 46 5.3 E 6 13 3 7 1025.2 1024.9 0.0
27/09:30am 14.9 11.3 4.9 51 4.7 E 13 17 7 9 1025.3 1025.0 0.0
27/09:00am 14.0 9.3 5.1 55 4.2 ESE 19 26 10 14 1025.2 1024.9 0.0
27/08:30am 12.9 8.1 5.6 61 3.4 ESE 20 28 11 15 1025.1 1024.8 0.0
27/08:00am 11.9 8.1 7.4 74 2.2 ESE 17 22 9 12 1024.9 1024.6 0.0
27/07:30am 9.4 6.7 7.2 86 1.0 SSE 11 15 6 8 1024.7 1024.4 0.0
27/07:00am 7.9 5.3 6.2 89 0.8 SSE 9 11 5 6 1024.3 1024.0 0.0
27/06:30am 7.1 4.0 5.4 89 0.8 SSE 11 13 6 7 1024.1 1023.8 0.0
27/06:00am 7.2 3.7 5.3 88 0.8 SSE 13 13 7 7 1023.9 1023.6 0.0
27/05:30am 7.7 4.3 5.7 87 0.9 SSE 13 15 7 8 1023.8 1023.5 0.0
27/05:00am 8.3 4.6 6.3 87 0.9 SSE 15 17 8 9 1023.7 1023.4 0.0
27/04:30am 8.3 4.9 6.1 86 1.0 SSE 13 15 7 8 1023.5 1023.2 0.0
27/04:00am 8.6 5.6 6.1 84 1.1 SSE 11 13 6 7 1023.2 1022.9 0.0
27/03:30am 8.8 6.5 5.9 82 1.3 SSE 7 11 4 6 1023.1 1022.8 0.0
27/03:00am 9.6 6.3 6.5 81 1.4 SSE 13 17 7 9 1023.1 1022.8 0.0
27/02:30am 10.4 7.3 7.3 81 1.5 SSE 13 17 7 9 1023.0 1022.7 0.0
27/02:00am 10.7 7.6 7.4 80 1.6 SSE 13 15 7 8 1023.1 1022.8 0.0
27/01:30am 11.3 8.7 7.6 78 1.8 SSE 11 15 6 8 1023.3 1023.0 0.0
27/01:00am 12.4 8.8 8.5 77 1.9 SSE 17 20 9 11 1023.5 1023.2 0.0
27/12:30am 13.1 9.1 9.0 76 2.1 SSE 20 26 11 14 1023.5 1023.2 0.0
27/12:00am 13.7 9.9 9.7 77 2.1 SSE 20 26 11 14 1023.6 1023.3 0.0
 
Date/Time
EDT
Temp
°C
App
Temp
°C
Dew
Point
Rel
Hum
%
Delta-T
°C
Wind Press
QNH
hPa
Press
MSL
hPa
Rain
since 9 am
mm
Dir
 
Spd
km/h
Gust
km/h
Spd
kts
Gust
kts
26/11:30pm 14.0 10.2 9.8 76 2.2 SSE 20 26 11 14 1023.5 1023.2 0.0
26/11:00pm 14.5 10.8 9.5 72 2.6 SSE 19 26 10 14 1023.6 1023.3 0.0
26/10:30pm 15.3 11.5 9.9 70 2.8 SSE 20 28 11 15 1023.5 1023.2 0.0
26/10:00pm 16.0 12.0 10.5 70 2.9 SSE 22 32 12 17 1023.2 1022.9 0.0
26/09:30pm 16.7 11.6 10.5 67 3.3 SSE 28 35 15 19 1022.7 1022.4 0.0
26/09:00pm 17.7 12.1 10.1 61 4.0 S 30 39 16 21 1022.3 1022.0 0.0
26/08:30pm 18.7 14.4 9.2 54 5.0 S 22 32 12 17 1021.8 1021.5 0.0
26/08:00pm 19.8 14.5 8.5 48 5.9 S 26 33 14 18 1021.5 1021.1 0.0
26/07:30pm 20.7 14.1 7.7 43 6.8 S 32 39 17 21 1021.2 1020.8 0.0
26/07:00pm 22.0 16.2 7.8 40 7.4 S 28 35 15 19 1020.9 1020.5 0.0
26/06:30pm 23.0 17.3 6.7 35 8.4 SSW 26 35 14 19 1020.4 1020.1 0.0
26/06:00pm 22.0 16.6 6.3 36 8.0 SSW 24 33 13 18 1020.3 1020.0 0.0
26/05:30pm 22.8 16.6 6.1 34 8.5 S 28 39 15 21 1020.4 1020.1 0.0
26/05:00pm 23.3 16.8 6.6 34 8.6 SSW 30 43 16 23 1020.5 1020.2 0.0
26/04:30pm 23.4 18.1 6.7 34 8.7 SSW 24 35 13 19 1020.8 1020.4 0.0
26/04:00pm 23.2 17.5 6.9 35 8.4 SSW 26 37 14 20 1021.0 1020.6 0.0
26/03:30pm 22.4 17.7 6.2 35 8.3 SW 20 32 11 17 1021.2 1020.8 0.0
26/03:00pm 23.1 18.7 7.2 36 8.3 SSW 20 32 11 17 1021.5 1021.1 0.0
26/02:30pm 21.4 16.7 6.1 37 7.7 S 20 28 11 15 1021.8 1021.5 0.0
26/02:00pm 21.0 16.5 6.2 38 7.5 SSW 19 32 10 17 1022.2 1021.9 0.0
26/01:30pm 20.0 15.4 6.4 41 6.9 SSW 20 35 11 19 1022.4 1022.1 0.0
26/01:00pm 19.7 15.4 7.1 44 6.4 SSW 19 28 10 15 1022.7 1022.4 0.0
26/12:30pm 18.9 14.8 6.4 44 6.3 SSW 17 28 9 15 1022.9 1022.6 0.0
26/12:00pm 18.1 14.4 6.3 46 5.8 S 15 26 8 14 1023.1 1022.8 0.0
26/11:30am 17.4 13.3 6.0 47 5.6 S 17 26 9 14 1023.3 1023.0 0.0
26/11:00am 17.0 12.8 5.9 48 5.4 SSW 17 22 9 12 1023.5 1023.2 0.0
26/10:30am 15.7 11.6 6.2 53 4.6 SSW 17 26 9 14 1023.3 1023.0 0.0
26/10:00am 15.6 11.0 6.6 55 4.4 SSW 20 28 11 15 1023.3 1023.0 0.0
26/09:30am 14.8 9.7 6.1 56 4.2 SSW 22 32 12 17 1023.3 1023.0 0.0
26/09:00am 14.6 9.2 6.2 57 4.0 SSW 24 32 13 17 1023.1 1022.8 0.0
26/08:30am 13.4 10.4 5.8 60 3.6 S 11 28 6 15 1022.8 1022.5 0.0
26/08:00am 11.6 9.0 6.1 69 2.6 S 9 15 5 8 1022.6 1022.3 0.0
26/07:30am 9.4 6.9 5.0 74 2.0 S 7 9 4 5 1022.5 1022.2 0.0
26/07:00am 7.7 5.8 4.7 81 1.3 S 4 6 2 3 1022.5 1022.2 0.0
26/06:30am 6.5 5.1 3.7 82 1.2 CALM 0 0 0 0 1022.2 1021.9 0.0
26/06:00am 6.2 4.3 2.8 79 1.4 S 2 4 1 2 1021.8 1021.5 0.0
26/05:30am 6.5 5.0 3.1 79 1.4 CALM 0 4 0 2 1021.6 1021.3 0.0
26/05:00am 7.3 4.8 3.7 78 1.5 S 6 6 3 3 1021.3 1020.9 0.0
26/04:30am 7.3 4.6 3.5 77 1.6 S 7 7 4 4 1021.2 1020.8 0.0
26/04:00am 7.6 5.1 3.5 75 1.8 S 6 7 3 4 1021.1 1020.7 0.0
26/03:30am 7.9 5.1 3.2 72 2.0 S 7 9 4 5 1021.2 1020.8 0.0
26/03:00am 8.8 6.2 4.0 72 2.1 S 7 9 4 5 1021.2 1020.8 0.0
26/02:30am 8.7 5.6 3.7 71 2.2 S 9 9 5 5 1021.5 1021.1 0.0
26/02:00am 8.8 5.3 3.6 70 2.3 SSW 11 11 6 6 1021.7 1021.4 0.0
26/01:30am 9.0 5.5 3.6 69 2.4 SSW 11 13 6 7 1021.8 1021.5 0.0
26/01:00am 9.7 5.9 3.9 67 2.6 S 13 15 7 8 1021.9 1021.6 0.0
26/12:30am 9.9 6.5 3.9 66 2.7 SSW 11 15 6 8 1022.0 1021.7 0.0
26/12:00am 10.3 6.4 3.6 63 2.9 SSW 13 15 7 8 1022.2 1021.9 0.0
 
Date/Time
EDT
Temp
°C
App
Temp
°C
Dew
Point
Rel
Hum
%
Delta-T
°C
Wind Press
QNH
hPa
Press
MSL
hPa
Rain
since 9 am
mm
Dir
 
Spd
km/h
Gust
km/h
Spd
kts
Gust
kts
25/11:30pm 11.2 7.3 3.5 59 3.4 SSW 13 15 7 8 1022.4 1022.1 0.0
25/11:00pm 12.2 8.0 3.9 57 3.7 SW 15 17 8 9 1022.5 1022.2 0.0
25/10:30pm 13.2 9.0 3.6 52 4.3 SW 15 17 8 9 1022.6 1022.3 0.0
25/10:00pm 14.2 9.6 3.9 50 4.7 SW 17 22 9 12 1022.3 1022.0 0.0
25/09:30pm 15.0 10.0 3.8 47 5.2 SW 19 24 10 13 1021.9 1021.6 0.0
25/09:00pm 15.9 10.3 3.7 44 5.6 SW 22 30 12 16 1021.5 1021.1 0.0
25/08:30pm 16.9 10.2 3.6 41 6.2 SW 28 35 15 19 1021.2 1020.8 0.0
25/08:00pm 18.4 11.3 3.5 37 7.0 SW 30 41 16 22 1020.9 1020.5 0.0
25/07:30pm 20.0 13.1 2.8 32 8.1 WSW 28 35 15 19 1020.3 1020.0 0.0
25/07:00pm 20.5 13.6 2.3 30 8.5 WSW 28 39 15 21 1019.9 1019.6 0.0
25/06:30pm 20.8 13.8 2.1 29 8.7 SW 28 39 15 21 1019.7 1019.4 0.0
25/06:00pm 21.4 15.3 2.6 29 8.9 SSW 24 37 13 20 1019.5 1019.2 0.0
25/05:30pm 22.3 15.7 1.9 26 9.6 WSW 26 39 14 21 1019.3 1019.0 0.0
25/05:00pm 22.4 14.9 1.4 25 9.8 W 30 35 16 19 1019.4 1019.1 0.0
25/04:30pm 21.7 15.8 1.9 27 9.3 W 22 33 12 18 1019.5 1019.2 0.0
25/04:00pm 22.0 15.2 3.2 29 9.0 SW 28 43 15 23 1019.8 1019.5 0.0
25/03:30pm 21.6 16.0 3.3 30 8.8 SW 22 35 12 19 1020.0 1019.7 0.0
25/03:00pm 21.4 16.3 4.0 32 8.4 W 20 30 11 16 1020.2 1019.9 0.0
25/02:39pm 21.9 15.2 3.6 30 8.9 W 28 48 15 26 1020.4 1020.1 0.0
25/02:30pm 21.0 14.3 3.7 32 8.3 W 28 41 15 22 1020.4 1020.1 0.0
25/02:00pm 20.4 13.5 2.3 30 8.4 W 28 48 15 26 1020.7 1020.3 0.0
25/01:52pm 21.7 14.7 3.9 31 8.7 W 30 48 16 26 1020.7 1020.3 0.0
25/01:30pm 19.5 13.0 2.4 32 7.9 SW 26 35 14 19 1020.9 1020.5 0.0
25/01:00pm 18.9 12.8 2.7 34 7.5 SW 24 41 13 22 1021.1 1020.7 0.0
25/12:30pm 19.4 13.4 3.6 35 7.5 W 24 35 13 19 1021.2 1020.8 0.0
25/12:00pm 18.4 12.1 3.5 37 7.0 SW 26 35 14 19 1021.3 1020.9 0.0
25/11:30am 18.0 13.0 3.5 38 6.8 WSW 19 32 10 17 1021.3 1020.9 0.0
25/11:00am 17.5 12.8 5.1 44 6.0 WSW 19 30 10 16 1021.4 1021.0 0.0
25/10:30am 16.5 11.0 6.1 50 5.1 SW 24 35 13 19 1021.4 1021.0 0.0
25/10:00am 17.1 12.2 6.9 51 5.1 SW 22 30 12 16 1021.3 1020.9 0.0
25/09:30am 16.2 10.5 6.6 53 4.7 SW 26 33 14 18 1021.2 1020.8 0.0
25/09:00am 15.2 10.3 6.7 57 4.2 SW 22 32 12 17 1021.1 1020.7 0.0
25/08:30am 14.2 9.4 7.5 64 3.3 SW 22 30 12 16 1020.7 1020.3 0.0
25/08:00am 12.9 8.5 7.4 69 2.7 SW 20 28 11 15 1020.3 1020.0 0.0
25/07:30am 10.2 7.0 6.9 80 1.6 WSW 13 19 7 10 1019.8 1019.5 0.0
25/07:00am 8.3 6.0 5.6 83 1.2 WNW 7 9 4 5 1019.6 1019.3 0.0
25/06:30am 7.7 5.5 5.2 84 1.1 W 6 9 3 5 1019.1 1018.8 0.0
25/06:00am 7.5 4.6 4.8 83 1.2 W 9 11 5 6 1018.8 1018.5 0.0
25/05:30am 7.6 3.9 4.7 82 1.3 WSW 13 15 7 8 1018.4 1018.1 0.0
25/05:00am 7.9 5.0 4.8 81 1.4 W 9 13 5 7 1018.1 1017.8 0.0
25/04:30am 8.3 5.5 5.2 81 1.4 WNW 9 11 5 6 1017.9 1017.6 0.0
25/04:00am 7.9 5.4 4.5 79 1.5 WNW 7 9 4 5 1017.7 1017.4 0.0
25/03:30am 8.4 5.5 4.6 77 1.7 WNW 9 11 5 6 1017.8 1017.5 0.0
25/03:00am 8.5 5.2 4.3 75 1.9 W 11 11 6 6 1017.7 1017.4 0.0
25/02:30am 8.6 5.6 4.2 74 1.9 WNW 9 11 5 6 1017.7 1017.4 0.0
25/02:00am 9.2 5.5 4.2 71 2.2 W 13 13 7 7 1017.7 1017.4 0.0
25/01:30am 9.7 5.6 4.5 70 2.3 W 15 17 8 9 1017.8 1017.5 0.0
25/01:00am 9.6 5.4 4.0 68 2.5 W 15 17 8 9 1017.9 1017.6 0.0
25/12:30am 10.4 6.3 4.3 66 2.7 W 15 19 8 10 1017.6 1017.3 0.0
25/12:00am 10.7 6.6 4.4 65 2.8 W 15 17 8 9 1017.5 1017.2 0.0
 
Date/Time
EDT
Temp
°C
App
Temp
°C
Dew
Point
Rel
Hum
%
Delta-T
°C
Wind Press
QNH
hPa
Press
MSL
hPa
Rain
since 9 am
mm
Dir
 
Spd
km/h
Gust
km/h
Spd
kts
Gust
kts
24/11:30pm 11.8 7.7 4.5 61 3.3 WSW 15 20 8 11 1017.3 1017.0 0.0
24/11:00pm 12.5 7.7 4.5 58 3.7 WSW 19 24 10 13 1016.9 1016.6 0.0
24/10:30pm 13.0 7.9 4.2 55 4.0 WSW 20 28 11 15 1016.6 1016.3 0.0
24/10:00pm 13.6 7.2 3.4 50 4.6 SW 26 35 14 19 1016.2 1015.9 0.0
24/09:30pm 14.1 7.6 2.7 46 5.1 SW 26 35 14 19 1015.7 1015.4 0.0
24/09:00pm 14.9 6.2 2.1 42 5.7 SW 37 46 20 25 1015.2 1014.8 0.0
24/08:30pm 15.7 6.7 2.5 41 6.0 SW 39 50 21 27 1014.7 1014.3 0.0
24/08:00pm 16.8 7.3 1.7 36 6.8 SW 41 54 22 29 1013.9 1013.5 0.0
24/07:30pm 18.0 9.3 2.3 35 7.2 WSW 37 52 20 28 1013.0 1012.7 0.0
24/07:00pm 19.2 9.6 3.4 35 7.5 WSW 43 56 23 30 1012.1 1011.8 0.0
24/06:30pm 20.1 10.2 2.5 31 8.2 WSW 44 59 24 32 1011.2 1010.9 0.0
24/06:16pm 20.8 11.3 4.8 35 7.9 WSW 44 63 24 34 1010.9 1010.6 0.0
24/06:00pm 20.5 10.8 5.7 38 7.4 WSW 46 57 25 31 1010.8 1010.5 0.0
24/05:30pm 21.3 11.8 6.8 39 7.4 WSW 46 59 25 32 1010.3 1010.0 0.0
24/05:00pm 20.3 11.9 8.9 48 6.1 WSW 43 54 23 29 1010.1 1009.8 0.0
24/04:30pm 18.8 10.3 8.7 52 5.3 WSW 43 54 23 29 1010.3 1010.0 0.0
24/04:00pm 19.4 11.3 10.9 58 4.7 SW 44 59 24 32 1010.2 1009.9 0.0
24/03:30pm 21.7 14.8 11.7 53 5.6 WSW 39 52 21 28 1009.8 1009.5 0.0
24/03:10pm 24.0 16.6 9.9 41 7.8 WSW 39 57 21 31 1009.3 1009.0 0.0
24/03:00pm 22.5 15.3 9.0 42 7.3 W 37 54 20 29 1009.5 1009.2 0.0
24/02:38pm 23.0 15.6 8.3 39 7.8 WSW 37 46 20 25 1009.4 1009.1 0.0
24/02:30pm 22.1 15.5 8.6 42 7.2 SW 33 43 18 23 1009.4 1009.1 0.0
24/02:00pm 22.2 15.0 9.0 43 7.1 SW 37 50 20 27 1009.5 1009.2 0.0
24/01:30pm 21.5 16.0 10.6 50 6.0 SW 30 39 16 21 1009.5 1009.2 0.0
24/01:00pm 21.7 15.7 10.8 50 6.0 SW 33 43 18 23 1009.4 1009.1 0.0
24/12:30pm 21.3 15.6 11.9 55 5.3 SW 33 43 18 23 1009.2 1008.9 0.0

Other Formats:

Comma delimited format used in spreadsheet applications
http://www.bom.gov.au/fwo/IDV60801/IDV60801.94827.axf

JavaScript Object Notation format (JSON) in row-major order
http://www.bom.gov.au/fwo/IDV60801/IDV60801.94827.json